Time;durP1;ratioP1;P1;durP2;ratioP2;P2;SDS_P1;SDS_P2;PMS_P1;PMS_P2;Temp;Humidity;BMP_temperature;BMP_pressure;BME280_temperature;BME280_humidity;BME280_pressure;Samples;Min_cycle;Max_cycle;Signal;HPM_P1;HPM_P2
2023/12/25 00:01:01;;;;;;;10.57;4.67;;;;;;;8.50;98.65;63827.50;5072055;28;20786;-55
2023/12/25 00:03:26;;;;;;;8.20;4.57;;;;;;;8.43;98.90;63820.41;5071304;28;20213;-54
2023/12/25 00:05:52;;;;;;;9.43;4.67;;;;;;;8.48;99.29;63825.31;5071925;28;20239;-54
2023/12/25 00:08:17;;;;;;;8.97;4.17;;;;;;;8.60;98.56;63838.41;5072010;28;20713;-54
2023/12/25 00:10:43;;;;;;;8.00;4.57;;;;;;;8.54;98.99;63834.38;5071609;28;20242;-54
2023/12/25 00:13:08;;;;;;;10.97;4.80;;;;;;;8.64;98.34;63845.31;5070871;28;20208;-54
2023/12/25 00:15:34;;;;;;;9.87;4.80;;;;;;;8.53;98.36;63833.28;5071686;28;20234;-53
2023/12/25 00:17:59;;;;;;;8.23;4.13;;;;;;;8.44;99.11;63824.53;5053870;28;20264;-55
2023/12/25 00:20:25;;;;;;;9.57;4.80;;;;;;;8.45;100.00;63820.63;5053037;28;20181;-53
2023/12/25 00:22:50;;;;;;;8.23;4.90;;;;;;;8.51;100.00;63829.13;5071964;28;20288;-54
2023/12/25 00:25:16;;;;;;;9.10;4.57;;;;;;;8.58;99.63;63833.72;5053737;28;20271;-53
2023/12/25 00:27:41;;;;;;;12.87;5.40;;;;;;;8.64;99.19;63842.78;5071632;28;20709;-57
2023/12/25 00:30:07;;;;;;;13.07;5.03;;;;;;;8.78;97.48;63855.56;5071577;28;20177;-53
2023/12/25 00:32:33;;;;;;;10.17;4.50;;;;;;;8.69;97.95;63848.78;5071569;28;20208;-53
2023/12/25 00:34:58;;;;;;;10.10;5.10;;;;;;;8.69;98.93;63845.72;5071398;28;20201;-53
2023/12/25 00:37:24;;;;;;;12.93;6.50;;;;;;;8.81;96.68;63861.91;5053396;28;20212;-53
2023/12/25 00:39:49;;;;;;;9.13;4.40;;;;;;;8.70;97.66;63852.41;5053394;28;20686;-53
2023/12/25 00:42:15;;;;;;;8.87;4.50;;;;;;;8.65;96.97;63843.88;5071590;28;20693;-53
2023/12/25 00:44:40;;;;;;;11.17;5.47;;;;;;;8.54;98.13;63831.88;5071235;28;20191;-54
2023/12/25 00:47:06;;;;;;;10.83;5.53;;;;;;;8.55;98.40;63836.00;5071259;28;20220;-54
2023/12/25 00:49:31;;;;;;;10.33;4.87;;;;;;;8.66;98.09;63842.47;5071375;28;20655;-54
2023/12/25 00:51:57;;;;;;;9.43;4.60;;;;;;;8.62;97.21;63841.16;5071179;28;20244;-58
2023/12/25 00:54:22;;;;;;;8.30;4.73;;;;;;;8.73;95.94;63855.69;5071121;28;20169;-54
2023/12/25 00:56:48;;;;;;;9.27;4.53;;;;;;;8.56;96.79;63834.06;5070953;28;20658;-55
2023/12/25 00:59:13;;;;;;;11.10;4.93;;;;;;;8.63;96.82;63844.75;5071302;28;20181;-55
2023/12/25 01:01:39;;;;;;;7.30;4.63;;;;;;;8.61;97.74;63837.53;5070978;28;20181;-53
2023/12/25 01:04:05;;;;;;;8.50;4.80;;;;;;;8.68;97.41;63847.16;5053056;28;20176;-54
2023/12/25 01:06:30;;;;;;;8.07;4.80;;;;;;;8.57;96.81;63832.63;5071119;28;20812;-55
2023/12/25 01:08:56;;;;;;;9.03;4.57;;;;;;;8.45;98.18;63822.56;5071217;28;20193;-59
2023/12/25 01:11:22;;;;;;;10.33;4.90;;;;;;;8.48;98.03;63827.81;5052997;28;20197;-55
2023/12/25 01:13:48;;;;;;;5.97;4.50;;;;;;;8.50;98.34;63827.50;5070900;28;20563;-54
2023/12/25 01:16:13;;;;;;;11.13;5.60;;;;;;;8.41;99.11;63818.75;5070949;28;20192;-56
2023/12/25 01:18:38;;;;;;;13.10;4.90;;;;;;;8.43;98.79;63822.91;5070736;28;20235;-55
2023/12/25 01:21:05;;;;;;;9.33;4.47;;;;;;;8.55;97.31;63832.94;5070859;28;20235;-58
2023/12/25 01:23:31;;;;;;;7.67;4.37;;;;;;;8.52;97.38;63829.69;5070515;28;20303;-54
2023/12/25 01:25:57;;;;;;;10.17;4.63;;;;;;;8.44;97.39;63824.00;5070914;28;20704;-53
2023/12/25 01:28:22;;;;;;;9.03;4.30;;;;;;;8.41;97.56;63818.75;5071010;28;20588;-54
2023/12/25 01:30:48;;;;;;;12.07;4.10;;;;;;;8.30;97.07;63809.25;5070817;28;20235;-55
2023/12/25 01:33:13;;;;;;;8.27;3.97;;;;;;;8.17;98.44;63794.50;5070736;28;20220;-55
2023/12/25 01:35:39;;;;;;;10.77;4.33;;;;;;;8.24;99.14;63800.16;5070672;28;20193;-53
2023/12/25 01:38:05;;;;;;;7.43;4.27;;;;;;;8.45;96.58;63820.63;5070671;28;20307;-53
2023/12/25 01:40:30;;;;;;;10.57;4.90;;;;;;;8.27;97.33;63800.41;5070537;28;20287;-54
2023/12/25 01:42:56;;;;;;;10.30;4.77;;;;;;;8.22;98.48;63797.97;5035893;28;20760;-54
2023/12/25 01:45:22;;;;;;;9.00;4.40;;;;;;;8.20;99.57;63795.28;5070428;28;20201;-55
2023/12/25 01:47:49;;;;;;;9.57;4.53;;;;;;;8.24;98.12;63797.66;5070502;28;20234;-53
2023/12/25 01:50:16;;;;;;;8.93;3.97;;;;;;;8.09;100.00;63785.75;5052432;28;20185;-53
2023/12/25 01:52:41;;;;;;;11.47;4.93;;;;;;;8.12;100.00;63787.06;5070724;28;20667;-53
2023/12/25 01:55:08;;;;;;;11.83;4.57;;;;;;;8.24;99.56;63799.63;5070381;28;20195;-59
2023/12/25 01:57:36;;;;;;;11.87;4.40;;;;;;;8.26;99.36;63804.88;5070593;28;20287;-54
2023/12/25 02:00:02;;;;;;;9.77;4.50;;;;;;;8.29;99.13;63807.63;5070380;28;20697;-54
2023/12/25 02:02:28;;;;;;;9.93;4.60;;;;;;;8.27;98.94;63800.97;5070337;28;20230;-59
2023/12/25 02:04:54;;;;;;;7.63;4.47;;;;;;;8.33;97.34;63809.47;5070540;28;20192;-56
2023/12/25 02:07:21;;;;;;;9.80;5.00;;;;;;;8.16;98.34;63793.94;5077964;22;20315;-56
2023/12/25 02:09:51;;;;;;;8.43;4.80;;;;;;;8.35;97.19;63811.66;5052401;28;20204;-54
2023/12/25 02:12:17;;;;;;;8.63;4.20;;;;;;;8.29;98.45;63808.16;5070202;28;20244;-54
2023/12/25 02:14:43;;;;;;;8.27;4.50;;;;;;;8.19;98.80;63797.22;5070238;28;20228;-54
2023/12/25 02:17:10;;;;;;;7.23;4.50;;;;;;;8.21;98.49;63794.41;5070188;28;20213;-52
2023/12/25 02:19:43;;;;;;;7.97;4.40;;;;;;;8.10;98.20;63782.38;5070247;28;20247;-53
2023/12/25 02:22:09;;;;;;;8.43;4.43;;;;;;;7.98;99.82;63771.25;5070363;28;20220;-53
2023/12/25 02:24:49;;;;;;;12.17;5.70;;;;;;;8.01;98.58;63777.56;5070187;28;20212;-53
2023/12/25 02:27:14;;;;;;;9.97;5.03;;;;;;;7.90;99.28;63767.53;5070082;28;20225;-55
2023/12/25 02:29:40;;;;;;;10.40;4.93;;;;;;;7.65;100.00;63736.31;5070150;28;20262;-55
2023/12/25 02:32:05;;;;;;;9.33;5.60;;;;;;;7.80;100.00;63754.13;5051855;28;20702;-54
2023/12/25 02:34:31;;;;;;;11.17;5.50;;;;;;;7.77;100.00;63745.81;5069969;28;20671;-54
2023/12/25 02:36:56;;;;;;;11.73;5.50;;;;;;;7.95;100.00;63768.53;5069868;28;20694;-55
2023/12/25 02:39:23;;;;;;;7.33;4.50;;;;;;;7.86;100.00;63758.69;5052102;28;20334;-54
2023/12/25 02:41:49;;;;;;;16.50;5.50;;;;;;;7.89;100.00;63761.41;5069968;28;20240;-54
2023/12/25 02:44:16;;;;;;;9.53;4.17;;;;;;;7.88;100.00;63762.84;5053072;28;20662;-56
2023/12/25 02:46:42;;;;;;;9.30;4.77;;;;;;;7.81;100.00;63755.19;5073244;28;20247;-55
2023/12/25 02:49:07;;;;;;;7.50;4.57;;;;;;;7.76;100.00;63749.75;5073162;28;20662;-55
2023/12/25 02:51:33;;;;;;;7.20;4.53;;;;;;;7.79;100.00;63750.50;5073207;28;20610;-56
2023/12/25 02:53:59;;;;;;;7.73;3.97;;;;;;;7.62;100.00;63735.00;5073774;28;20216;-55
2023/12/25 02:56:24;;;;;;;9.10;4.43;;;;;;;7.72;100.00;63745.91;5073253;28;20270;-54
2023/12/25 02:58:50;;;;;;;14.63;4.90;;;;;;;7.57;100.00;63724.53;5073071;28;20594;-54
2023/12/25 03:01:15;;;;;;;7.60;4.37;;;;;;;7.59;100.00;63729.22;5072704;28;20223;-53
2023/12/25 03:03:41;;;;;;;10.30;6.13;;;;;;;7.70;100.00;63741.22;5072371;28;20216;-54
2023/12/25 03:06:06;;;;;;;8.10;4.57;;;;;;;7.69;100.00;63740.13;5073104;28;20345;-56
2023/12/25 03:08:32;;;;;;;10.97;3.87;;;;;;;7.74;100.00;63745.59;5073349;28;20209;-54
2023/12/25 03:10:59;;;;;;;4.57;3.13;;;;;;;7.75;100.00;63749.19;5073097;28;20719;-53
2023/12/25 03:13:25;;;;;;;6.33;3.93;;;;;;;7.58;100.00;63728.69;5072774;28;20217;-53
2023/12/25 03:15:50;;;;;;;10.17;3.90;;;;;;;7.70;100.00;63740.66;5054953;28;20203;-54
2023/12/25 03:18:16;;;;;;;6.37;3.20;;;;;;;7.57;100.00;63727.03;5072674;28;20219;-53
2023/12/25 03:21:00;;;;;;;9.50;3.97;;;;;;;7.61;100.00;63734.44;5072681;28;20188;-53
2023/12/25 03:23:25;;;;;;;8.83;4.83;;;;;;;7.55;100.00;63722.34;5073167;28;20215;-58
2023/12/25 03:25:51;;;;;;;8.53;3.50;;;;;;;7.53;100.00;63722.69;5072733;28;20659;-54
2023/12/25 03:28:26;;;;;;;8.40;3.70;;;;;;;7.61;100.00;63731.94;5072607;28;20756;-54
2023/12/25 03:30:52;;;;;;;9.77;3.87;;;;;;;7.56;100.00;63728.44;5072542;28;20187;-54
2023/12/25 03:33:18;;;;;;;6.93;3.60;;;;;;;7.56;100.00;63730.97;5072571;28;20209;-53
2023/12/25 03:35:43;;;;;;;8.43;3.83;;;;;;;7.51;100.00;63723.53;5072571;28;20227;-53
2023/12/25 03:38:09;;;;;;;5.83;4.13;;;;;;;7.56;100.00;63726.50;5054341;28;20828;-54
2023/12/25 03:40:34;;;;;;;8.17;3.97;;;;;;;7.59;100.00;63726.72;5072509;28;20192;-54
2023/12/25 03:43:00;;;;;;;9.57;3.90;;;;;;;7.49;100.00;63718.84;5072213;28;20209;-54
2023/12/25 03:45:25;;;;;;;10.90;4.17;;;;;;;7.46;100.00;63712.53;5072502;28;20212;-57
2023/12/25 03:47:52;;;;;;;8.77;4.53;;;;;;;7.42;100.00;63711.22;5072597;28;20250;-58
2023/12/25 03:50:17;;;;;;;11.40;4.63;;;;;;;7.34;100.00;63701.94;5072349;28;20193;-53
2023/12/25 03:52:43;;;;;;;12.10;4.77;;;;;;;7.46;100.00;63715.03;5072515;28;20304;-55
2023/12/25 03:55:08;;;;;;;7.87;4.43;;;;;;;7.61;100.00;63731.41;5070876;28;20189;-54
2023/12/25 03:57:34;;;;;;;7.90;4.57;;;;;;;7.50;100.00;63721.91;5053253;28;20208;-53
2023/12/25 04:00:00;;;;;;;9.47;4.53;;;;;;;7.39;100.00;63710.44;5071639;28;20185;-55
2023/12/25 04:02:25;;;;;;;6.27;3.27;;;;;;;7.50;100.00;63719.41;5071913;28;20759;-56
2023/12/25 04:04:50;;;;;;;6.00;3.73;;;;;;;7.51;100.00;63723.00;5072147;28;20705;-55
2023/12/25 04:07:16;;;;;;;11.53;3.80;;;;;;;7.25;100.00;63692.13;5072171;28;20701;-57
2023/12/25 04:09:42;;;;;;;8.13;4.03;;;;;;;7.35;100.00;63705.56;5053995;28;20206;-54
2023/12/25 04:12:08;;;;;;;11.17;4.03;;;;;;;7.44;100.00;63712.84;5072091;28;20213;-54
2023/12/25 04:14:42;;;;;;;8.73;4.00;;;;;;;7.55;100.00;63727.38;5071934;28;20724;-53
2023/12/25 04:17:08;;;;;;;5.77;3.63;;;;;;;7.47;100.00;63716.66;5071917;28;20287;-53
2023/12/25 04:19:33;;;;;;;12.43;3.40;;;;;;;7.43;100.00;63714.81;5071891;28;20264;-58
2023/12/25 04:21:59;;;;;;;7.27;3.73;;;;;;;7.30;100.00;63700.63;5071514;28;20706;-57
2023/12/25 04:24:24;;;;;;;8.63;3.90;;;;;;;7.35;100.00;63705.56;5071901;28;20234;-54
2023/12/25 04:26:50;;;;;;;9.57;4.53;;;;;;;7.36;100.00;63706.63;5071891;28;20217;-54
2023/12/25 04:29:15;;;;;;;7.43;3.70;;;;;;;7.47;100.00;63716.13;5071749;28;20191;-54
2023/12/25 04:31:41;;;;;;;5.07;3.30;;;;;;;7.45;100.00;63717.00;5071611;28;20204;-54
2023/12/25 04:34:06;;;;;;;9.87;4.13;;;;;;;7.52;100.00;63724.63;5071883;28;20184;-53
2023/12/25 04:36:32;;;;;;;7.67;3.60;;;;;;;7.56;100.00;63728.44;5071424;28;20192;-54
2023/12/25 04:39:01;;;;;;;4.43;3.00;;;;;;;7.59;100.00;63732.25;5053500;28;20631;-54
2023/12/25 04:41:27;;;;;;;7.27;4.10;;;;;;;7.56;100.00;63726.50;5071326;28;20267;-55
2023/12/25 04:43:53;;;;;;;7.73;3.70;;;;;;;7.67;100.00;63740.47;5071541;28;20196;-54
2023/12/25 04:46:19;;;;;;;8.30;3.37;;;;;;;7.83;100.00;63755.41;5071296;28;20201;-52
2023/12/25 04:48:45;;;;;;;9.57;4.10;;;;;;;7.65;100.00;63735.78;5071224;28;20208;-56
2023/12/25 04:51:10;;;;;;;8.90;3.37;;;;;;;7.76;100.00;63750.28;5071286;28;20682;-52
2023/12/25 04:53:36;;;;;;;7.87;3.50;;;;;;;7.87;100.00;63761.75;5071559;28;20212;-54
2023/12/25 04:56:03;;;;;;;8.17;3.70;;;;;;;8.00;100.00;63773.44;5053290;28;20188;-53
2023/12/25 04:58:28;;;;;;;8.37;3.47;;;;;;;7.92;99.40;63765.22;5071313;28;20209;-54
2023/12/25 05:00:54;;;;;;;8.60;3.93;;;;;;;7.94;97.98;63764.91;5053138;28;20222;-54
2023/12/25 05:03:21;;;;;;;5.50;3.13;;;;;;;7.90;97.35;63762.50;5053244;28;20196;-53
2023/12/25 05:05:49;;;;;;;8.27;3.40;;;;;;;7.88;100.00;63760.34;5071023;28;20746;-54
2023/12/25 05:08:15;;;;;;;10.73;3.97;;;;;;;7.91;98.67;63761.63;5070686;28;20258;-53
2023/12/25 05:10:41;;;;;;;9.60;3.43;;;;;;;7.86;100.00;63758.16;5071166;28;20295;-54
2023/12/25 05:13:08;;;;;;;7.17;3.67;;;;;;;7.86;100.00;63758.16;5053115;28;20736;-53
2023/12/25 05:15:33;;;;;;;5.80;3.83;;;;;;;7.73;100.00;63744.50;5053019;28;20192;-54
2023/12/25 05:17:59;;;;;;;8.50;3.33;;;;;;;7.76;99.27;63747.78;5071205;28;20216;-55
2023/12/25 05:20:24;;;;;;;6.83;3.17;;;;;;;7.72;100.00;63742.84;5070962;28;20585;-53
2023/12/25 05:22:50;;;;;;;11.60;3.50;;;;;;;7.75;99.67;63748.66;5070865;28;20287;-54
2023/12/25 05:25:16;;;;;;;6.13;3.20;;;;;;;7.77;100.00;63748.31;5070924;28;20624;-55
2023/12/25 05:27:41;;;;;;;10.60;3.67;;;;;;;7.54;100.00;63726.81;5052789;28;20227;-54
2023/12/25 05:30:08;;;;;;;10.80;3.70;;;;;;;7.72;100.00;63745.91;5070983;28;20188;-55
2023/12/25 05:32:35;;;;;;;6.00;3.17;;;;;;;7.72;100.00;63745.91;5070610;28;20709;-55
2023/12/25 05:35:01;;;;;;;9.00;2.90;;;;;;;7.89;100.00;63761.41;5052782;28;20193;-53
2023/12/25 05:37:36;;;;;;;6.07;2.90;;;;;;;7.79;100.00;63748.53;5071040;28;20204;-53
2023/12/25 05:40:03;;;;;;;7.57;3.73;;;;;;;7.71;100.00;63742.31;5052712;28;20204;-54
2023/12/25 05:42:29;;;;;;;8.07;4.20;;;;;;;7.93;98.24;63766.34;5070882;28;20259;-54
2023/12/25 05:44:54;;;;;;;6.53;3.40;;;;;;;7.80;100.00;63749.09;5070576;28;20596;-54
2023/12/25 05:47:20;;;;;;;9.63;4.10;;;;;;;7.80;100.00;63749.63;5070643;28;20220;-55
2023/12/25 05:49:45;;;;;;;5.70;3.20;;;;;;;7.85;99.88;63759.56;5052615;28;20678;-55
2023/12/25 05:52:11;;;;;;;7.30;3.60;;;;;;;7.86;100.00;63758.69;5070612;28;20227;-55
2023/12/25 05:54:37;;;;;;;7.87;3.57;;;;;;;7.84;99.47;63756.50;5070373;28;20627;-53
2023/12/25 05:57:03;;;;;;;6.80;4.03;;;;;;;7.90;98.10;63765.03;5052259;28;20223;-54
2023/12/25 05:59:28;;;;;;;9.73;3.47;;;;;;;7.79;98.96;63750.50;5070429;28;20185;-52
2023/12/25 06:01:54;;;;;;;4.23;3.23;;;;;;;7.69;99.37;63737.63;5070423;28;20219;-57
2023/12/25 06:04:19;;;;;;;6.50;3.70;;;;;;;7.77;98.90;63745.81;5070349;28;20185;-56
2023/12/25 06:06:45;;;;;;;7.77;3.37;;;;;;;7.71;99.71;63741.78;5070208;28;20220;-55
2023/12/25 06:09:12;;;;;;;9.43;4.03;;;;;;;7.65;100.00;63738.28;5070273;28;20230;-53
2023/12/25 06:11:38;;;;;;;8.07;3.57;;;;;;;7.71;100.00;63744.28;5070189;28;20192;-53
2023/12/25 06:14:04;;;;;;;6.73;3.53;;;;;;;7.71;100.00;63742.31;5070135;28;20192;-55
2023/12/25 06:16:30;;;;;;;6.30;3.30;;;;;;;7.76;99.12;63750.28;5052017;28;20272;-58
2023/12/25 06:18:55;;;;;;;8.93;4.27;;;;;;;7.71;99.78;63741.78;5070853;28;20227;-54
2023/12/25 06:21:21;;;;;;;5.00;3.20;;;;;;;7.73;100.00;63747.00;5073571;28;20192;-56
2023/12/25 06:23:46;;;;;;;6.13;3.30;;;;;;;7.75;100.00;63749.19;5073982;28;20292;-55
2023/12/25 06:26:12;;;;;;;7.90;3.37;;;;;;;7.78;100.00;63751.94;5073735;28;20776;-56
2023/12/25 06:28:37;;;;;;;8.03;4.33;;;;;;;7.51;100.00;63718.00;5073819;28;20534;-55
2023/12/25 06:31:03;;;;;;;6.90;5.07;;;;;;;7.73;100.00;63744.50;5073694;28;20294;-55
2023/12/25 06:33:28;;;;;;;6.83;3.57;;;;;;;7.85;100.00;63757.59;5073664;28;20217;-57
2023/12/25 06:35:54;;;;;;;11.20;3.07;;;;;;;8.12;97.09;63786.53;5073313;28;20189;-56
2023/12/25 06:38:19;;;;;;;5.30;3.33;;;;;;;8.06;95.25;63780.50;5073509;28;20239;-55
2023/12/25 06:40:45;;;;;;;8.57;3.50;;;;;;;8.02;95.65;63778.13;5073230;28;20714;-57
2023/12/25 06:43:10;;;;;;;6.50;2.80;;;;;;;7.94;96.65;63766.88;5073664;28;20220;-56
2023/12/25 06:45:36;;;;;;;10.00;3.33;;;;;;;7.99;95.93;63772.88;5073221;28;20184;-55
2023/12/25 06:48:02;;;;;;;9.23;3.47;;;;;;;8.14;94.60;63786.75;5055047;28;20228;-55
2023/12/25 06:50:28;;;;;;;10.23;3.20;;;;;;;8.06;94.45;63783.03;5055260;28;20187;-53
2023/12/25 06:52:53;;;;;;;7.47;3.27;;;;;;;8.05;93.72;63778.88;5072926;28;20705;-53
2023/12/25 06:55:19;;;;;;;5.50;2.90;;;;;;;8.08;95.47;63784.69;5073185;28;20271;-54
2023/12/25 06:57:45;;;;;;;7.80;3.13;;;;;;;8.43;94.20;63820.94;5073373;28;20204;-53
2023/12/25 07:00:11;;;;;;;3.93;3.50;;;;;;;8.60;92.48;63838.97;5073125;28;20188;-54
2023/12/25 07:02:37;;;;;;;11.50;3.43;;;;;;;8.57;92.85;63837.66;5072950;28;20205;-53
2023/12/25 07:05:04;;;;;;;6.30;3.10;;;;;;;8.46;93.14;63823.69;5072965;28;20191;-53
2023/12/25 07:07:30;;;;;;;6.97;3.27;;;;;;;8.45;94.82;63823.13;5054659;28;20221;-59
2023/12/25 07:09:56;;;;;;;7.47;3.23;;;;;;;8.87;90.72;63867.91;5072858;28;20197;-53
2023/12/25 07:12:23;;;;;;;11.00;3.90;;;;;;;8.90;91.10;63869.22;5079941;22;20227;-58
2023/12/25 07:14:50;;;;;;;7.77;3.03;;;;;;;9.07;90.21;63887.81;5073158;28;20195;-54
2023/12/25 07:17:17;;;;;;;6.97;3.17;;;;;;;8.87;89.72;63870.97;5073026;28;20738;-55
2023/12/25 07:19:43;;;;;;;13.40;5.13;;;;;;;9.08;88.36;63893.94;5055121;28;20185;-55
2023/12/25 07:22:09;;;;;;;7.10;3.60;;;;;;;9.32;84.81;63917.66;5072983;28;20227;-55
2023/12/25 07:24:35;;;;;;;6.90;3.40;;;;;;;9.47;84.47;63932.94;5080147;22;20249;-55
2023/12/25 07:27:01;;;;;;;5.90;3.53;;;;;;;9.58;82.75;63942.44;5054587;28;20725;-55
2023/12/25 07:29:26;;;;;;;6.40;3.50;;;;;;;9.58;82.71;63945.53;5072722;28;20216;-55
2023/12/25 07:31:52;;;;;;;4.77;3.23;;;;;;;9.75;82.99;63963.56;5072604;28;20209;-56
2023/12/25 07:34:18;;;;;;;10.17;3.90;;;;;;;10.06;79.97;64000.53;5054873;28;20300;-55
2023/12/25 07:36:44;;;;;;;8.67;3.63;;;;;;;10.11;86.34;64002.97;5072416;28;20221;-55
2023/12/25 07:39:10;;;;;;;5.23;3.30;;;;;;;10.39;83.51;64031.09;5072335;28;20188;-55
2023/12/25 07:41:36;;;;;;;6.17;3.17;;;;;;;10.61;81.35;64060.19;5054640;28;20193;-57
2023/12/25 07:44:02;;;;;;;9.30;3.40;;;;;;;10.35;77.59;64026.72;5054729;28;20677;-55
2023/12/25 07:46:28;;;;;;;9.37;4.03;;;;;;;10.45;81.58;64042.69;5072160;28;20246;-55
2023/12/25 07:48:54;;;;;;;5.90;3.40;;;;;;;10.93;75.44;64089.63;5054673;28;20196;-56
2023/12/25 07:51:20;;;;;;;7.53;3.90;;;;;;;11.09;73.11;64109.69;5054132;28;20239;-54
2023/12/25 07:53:46;;;;;;;8.07;3.57;;;;;;;11.35;70.54;64137.63;5054181;28;20208;-56
2023/12/25 07:56:12;;;;;;;5.80;3.60;;;;;;;11.36;71.19;64141.78;5072172;28;20189;-55
2023/12/25 07:58:37;;;;;;;8.83;4.20;;;;;;;11.31;71.77;64133.25;5072054;28;20243;-56
2023/12/25 08:01:03;;;;;;;11.30;5.37;;;;;;;11.09;71.70;64109.69;5072197;28;20673;-56
2023/12/25 08:03:29;;;;;;;6.03;3.20;;;;;;;11.81;73.70;64185.53;5037382;28;20196;-55
2023/12/25 08:05:54;;;;;;;7.93;3.20;;;;;;;11.86;66.81;64192.97;5072033;28;20571;-55
2023/12/25 08:08:20;;;;;;;6.30;2.93;;;;;;;12.17;65.57;64230.03;5054120;28;20277;-55
2023/12/25 08:10:46;;;;;;;5.17;2.47;;;;;;;12.61;63.91;64272.66;5071993;28;20181;-54
2023/12/25 08:13:15;;;;;;;12.17;3.13;;;;;;;12.91;62.31;64305.56;5071720;28;20284;-53
2023/12/25 08:15:41;;;;;;;7.55;3.10;;;;;;;13.04;60.93;64317.34;5071764;28;20227;-55
2023/12/25 08:18:07;;;;;;;6.93;4.17;;;;;;;13.14;61.29;64332.81;5071468;28;20630;-54
2023/12/25 08:20:32;;;;;;;9.60;3.53;;;;;;;13.16;60.02;64332.47;5072172;28;20189;-53
2023/12/25 08:22:58;;;;;;;8.40;3.40;;;;;;;13.69;58.73;64392.66;5071671;28;20212;-57
2023/12/25 08:25:23;;;;;;;16.83;4.07;;;;;;;13.98;56.88;64422.50;5072003;28;20193;-55
2023/12/25 08:27:49;;;;;;;9.50;3.23;;;;;;;14.17;55.55;64443.38;5053378;28;20683;-54
2023/12/25 08:30:14;;;;;;;9.27;3.97;;;;;;;14.42;56.85;64470.31;5071568;28;20227;-53
2023/12/25 08:32:40;;;;;;;7.75;3.60;;;;;;;14.59;54.07;64490.97;5071444;28;20717;-53
2023/12/25 08:35:05;;;;;;;7.43;3.30;;;;;;;14.62;53.23;64492.28;5071742;28;20192;-53
2023/12/25 08:37:31;;;;;;;9.20;3.42;;;;;;;14.58;54.20;64489.88;5071612;28;20308;-55
2023/12/25 08:39:56;;;;;;;7.57;3.83;;;;;;;14.88;53.80;64520.88;5053738;28;20212;-55
2023/12/25 08:42:22;;;;;;;10.98;3.15;;;;;;;14.99;52.25;64535.50;5070686;28;20338;-54
2023/12/25 08:44:48;;;;;;;8.80;3.70;;;;;;;15.29;51.79;64562.31;5071613;28;20196;-55
2023/12/25 08:47:14;;;;;;;4.00;2.80;;;;;;;15.57;50.70;64595.66;5071219;28;20219;-53
2023/12/25 08:49:40;;;;;;;7.93;3.53;;;;;;;15.76;49.64;64616.53;5071629;28;20216;-54
2023/12/25 08:52:06;;;;;;;10.98;3.40;;;;;;;15.62;49.54;64601.16;5071336;28;20719;-54
2023/12/25 08:54:32;;;;;;;6.60;3.60;;;;;;;15.54;49.92;64592.34;5071517;28;20200;-53
2023/12/25 08:56:59;;;;;;;6.15;2.92;;;;;;;15.80;49.17;64620.94;5071021;28;20211;-54
2023/12/25 08:59:24;;;;;;;6.32;3.35;;;;;;;15.94;48.13;64638.91;5071271;28;20308;-54
2023/12/25 09:01:51;;;;;;;12.57;4.13;;;;;;;16.09;47.26;64652.31;5071044;28;20562;-53
2023/12/25 09:04:16;;;;;;;5.60;3.17;;;;;;;16.12;47.12;64655.63;5071343;28;20196;-54
2023/12/25 09:06:42;;;;;;;6.18;2.80;;;;;;;16.37;46.21;64683.69;5053095;28;20615;-53
2023/12/25 09:09:09;;;;;;;10.82;3.53;;;;;;;16.27;45.98;64670.13;5070894;28;20212;-54
2023/12/25 09:11:35;;;;;;;6.13;3.30;;;;;;;16.46;45.77;64690.50;5052834;28;20189;-58
2023/12/25 09:14:01;;;;;;;9.27;3.58;;;;;;;16.68;45.22;64717.81;5036441;28;20226;-54
2023/12/25 09:16:28;;;;;;;8.48;3.78;;;;;;;17.11;45.34;64764.09;5070962;28;20646;-53
2023/12/25 09:18:54;;;;;;;10.02;3.25;;;;;;;17.15;45.06;64766.50;5071294;28;20249;-53
2023/12/25 09:21:21;;;;;;;8.50;3.10;;;;;;;17.33;45.23;64788.34;5070864;28;20225;-54
2023/12/25 09:23:47;;;;;;;8.07;3.88;;;;;;;17.60;44.68;64818.09;5070994;28;20272;-61
2023/12/25 09:26:19;;;;;;;8.32;3.88;;;;;;;18.00;43.86;64862.19;5070752;28;20770;-55
2023/12/25 09:28:45;;;;;;;9.98;4.10;;;;;;;18.12;43.24;64874.88;5070672;28;20291;-53
2023/12/25 09:31:12;;;;;;;6.80;3.67;;;;;;;18.48;42.98;64911.50;5070826;28;20727;-55
2023/12/25 09:33:37;;;;;;;11.02;4.05;;;;;;;18.52;43.72;64915.91;5070482;28;20262;-53
2023/12/25 09:36:03;;;;;;;9.43;3.67;;;;;;;18.79;42.93;64948.22;5070997;28;20185;-54
2023/12/25 09:38:29;;;;;;;12.45;4.68;;;;;;;18.62;42.96;64929.50;5070524;28;20651;-53
2023/12/25 09:40:55;;;;;;;9.30;3.95;;;;;;;18.58;43.15;64925.09;5070567;28;20192;-53
2023/12/25 09:43:22;;;;;;;8.90;5.00;;;;;;;18.31;43.61;64896.38;5070432;28;20211;-53
2023/12/25 09:45:49;;;;;;;9.00;4.72;;;;;;;18.33;43.19;64898.03;5070529;28;20192;-53
2023/12/25 09:48:17;;;;;;;10.95;5.53;;;;;;;18.77;43.22;64946.03;5070554;28;20209;-54
2023/12/25 09:50:44;;;;;;;9.48;4.80;;;;;;;18.63;42.80;64928.03;5070908;28;20191;-53
2023/12/25 09:53:09;;;;;;;8.10;5.05;;;;;;;18.63;42.84;64930.59;5070452;28;20277;-53
2023/12/25 09:55:35;;;;;;;10.77;5.10;;;;;;;19.00;43.26;64971.41;5074241;28;20224;-54
2023/12/25 09:58:05;;;;;;;8.18;4.57;;;;;;;19.01;42.17;64969.97;5055990;28;20220;-53
2023/12/25 10:00:32;;;;;;;11.63;5.25;;;;;;;19.19;40.50;64990.38;5074379;28;20188;-53
2023/12/25 10:03:00;;;;;;;11.85;4.78;;;;;;;19.37;40.78;65011.72;5074045;28;20208;-53
2023/12/25 10:05:26;;;;;;;8.25;4.40;;;;;;;19.30;41.13;65004.53;5073879;28;20287;-54
2023/12/25 10:07:51;;;;;;;10.50;4.82;;;;;;;19.09;41.79;64981.34;5073796;28;20227;-53
2023/12/25 10:10:17;;;;;;;12.18;4.97;;;;;;;19.37;40.25;65011.72;5073648;28;20279;-54
2023/12/25 10:12:47;;;;;;;9.05;4.63;;;;;;;19.07;40.26;64979.13;5073650;28;20220;-54
2023/12/25 10:15:13;;;;;;;8.23;4.75;;;;;;;19.25;41.25;64999.56;5074205;28;20189;-54
2023/12/25 10:17:39;;;;;;;11.23;4.78;;;;;;;19.52;40.55;65025.72;5073727;28;20188;-53
2023/12/25 10:20:08;;;;;;;11.25;4.53;;;;;;;19.73;40.04;65052.03;5074397;28;20188;-53
2023/12/25 10:22:37;;;;;;;10.65;4.57;;;;;;;19.75;39.72;65054.25;5073700;28;20204;-53
2023/12/25 10:25:10;;;;;;;7.60;4.75;;;;;;;20.02;39.12;65083.50;5055724;28;20189;-53
2023/12/25 10:27:43;;;;;;;10.20;5.38;;;;;;;20.14;38.25;65094.19;5073652;28;20204;-53
2023/12/25 10:30:30;;;;;;;9.23;4.10;;;;;;;19.97;39.12;65075.41;5073807;28;20193;-53
2023/12/25 10:33:14;;;;;;;11.55;4.65;;;;;;;19.56;38.91;65030.69;5055624;28;20235;-56
2023/12/25 10:35:40;;;;;;;8.38;3.78;;;;;;;19.69;39.25;65044.50;5073832;28;20186;-54
2023/12/25 10:38:07;;;;;;;9.00;4.22;;;;;;;19.87;38.64;65066.94;5073485;28;20282;-55
2023/12/25 10:40:33;;;;;;;8.23;3.80;;;;;;;19.90;38.26;65070.25;5073791;28;20321;-54
2023/12/25 10:42:59;;;;;;;10.30;4.47;;;;;;;20.03;38.00;65084.59;5073351;28;20209;-54
2023/12/25 10:45:30;;;;;;;8.82;3.58;;;;;;;20.03;37.51;65082.06;5073492;28;20181;-54
2023/12/25 10:48:00;;;;;;;5.53;3.25;;;;;;;19.48;38.37;65023.88;5073247;28;20687;-54
2023/12/25 10:50:27;;;;;;;10.32;3.67;;;;;;;19.98;38.65;65079.06;5055133;28;20197;-54
2023/12/25 10:53:04;;;;;;;9.93;3.72;;;;;;;19.75;37.96;65051.69;5073180;28;20261;-54
2023/12/25 10:55:39;;;;;;;8.13;3.65;;;;;;;19.56;37.97;65033.25;5055180;28;20218;-55
2023/12/25 10:58:10;;;;;;;7.63;4.43;;;;;;;18.98;39.30;64969.22;5072884;28;20239;-55
2023/12/25 11:00:39;;;;;;;7.50;3.80;;;;;;;19.18;38.82;64989.28;5073391;28;20266;-56
2023/12/25 11:03:06;;;;;;;6.18;3.40;;;;;;;18.82;39.71;64949.00;5072839;28;20209;-55
2023/12/25 11:05:32;;;;;;;6.70;3.47;;;;;;;19.31;38.41;65002.53;5054428;28;20201;-55
2023/12/25 11:07:58;;;;;;;6.72;3.83;;;;;;;19.46;39.06;65022.22;5072658;28;20208;-54
2023/12/25 11:10:30;;;;;;;7.28;3.97;;;;;;;19.86;38.28;65066.38;5072945;28;20688;-54
2023/12/25 11:12:56;;;;;;;7.53;3.42;;;;;;;20.06;38.30;65083.34;5072835;28;20196;-55
2023/12/25 11:15:23;;;;;;;15.98;5.38;;;;;;;20.32;38.38;65116.13;5072805;28;20200;-55
2023/12/25 11:17:50;;;;;;;9.70;4.55;;;;;;;20.53;37.79;65137.31;5072618;28;20197;-55
2023/12/25 11:20:16;;;;;;;8.10;3.50;;;;;;;20.30;37.29;65111.34;5073086;28;20205;-55
2023/12/25 11:22:44;;;;;;;8.90;4.05;;;;;;;20.29;38.15;65110.78;5072627;28;20291;-55
2023/12/25 11:25:15;;;;;;;9.07;3.67;;;;;;;20.29;37.52;65112.78;5073059;28;20239;-55
2023/12/25 11:27:42;;;;;;;9.18;3.90;;;;;;;19.82;37.83;65056.84;5072575;28;20216;-54
2023/12/25 11:30:10;;;;;;;8.38;3.80;;;;;;;20.05;37.64;65084.25;5072584;28;20307;-53